createdAt,value
2019-02-20T00:00:04.945Z,148.90
2019-02-20T00:02:33.599Z,148.00
2019-02-20T00:05:00.578Z,147.37
2019-02-20T00:07:27.535Z,146.90
2019-02-20T00:09:54.494Z,148.22
2019-02-20T00:12:21.415Z,146.90
2019-02-20T00:14:48.380Z,148.45
2019-02-20T00:17:15.330Z,149.20
2019-02-20T00:19:42.212Z,148.53
2019-02-20T00:22:09.056Z,146.72
2019-02-20T00:24:35.927Z,147.57
2019-02-20T00:27:02.710Z,146.45
2019-02-20T00:29:29.585Z,147.60
2019-02-20T00:31:56.453Z,147.82
2019-02-20T00:34:23.211Z,147.40
2019-02-20T00:36:50.220Z,148.80
2019-02-20T00:39:18.188Z,148.90
2019-02-20T00:41:45.170Z,147.28
2019-02-20T00:44:40.533Z,147.75
2019-02-20T00:47:19.935Z,146.30
2019-02-20T00:49:48.739Z,149.72
2019-02-20T00:52:49.638Z,148.00
2019-02-20T00:55:10.078Z,149.53
2019-02-20T00:57:36.929Z,148.13
2019-02-20T01:00:04.475Z,148.28
2019-02-20T01:02:31.610Z,148.72
2019-02-20T01:04:58.453Z,148.93
2019-02-20T01:07:26.547Z,150.20
2019-02-20T01:09:53.369Z,150.05
2019-02-20T01:12:20.528Z,149.72
2019-02-20T01:14:47.304Z,149.40
2019-02-20T01:17:14.142Z,148.32
2019-02-20T01:19:40.907Z,149.72
2019-02-20T01:22:07.643Z,149.95
2019-02-20T01:24:34.397Z,150.68
2019-02-20T01:27:01.240Z,150.93
2019-02-20T01:29:28.131Z,152.15
2019-02-20T01:31:54.912Z,151.18
2019-02-20T01:34:21.863Z,151.37
2019-02-20T01:36:48.620Z,151.40
2019-02-20T01:39:15.547Z,150.70
2019-02-20T01:41:43.581Z,150.65
2019-02-20T01:44:10.379Z,151.00
2019-02-20T01:46:37.135Z,152.43
2019-02-20T01:49:03.884Z,149.30
2019-02-20T01:51:31.079Z,151.75
2019-02-20T01:53:58.115Z,150.93
2019-02-20T01:56:24.866Z,152.85
2019-02-20T01:58:51.740Z,151.97
2019-02-20T02:01:18.591Z,153.45
2019-02-20T02:03:45.469Z,151.02
2019-02-20T02:06:12.320Z,152.38
2019-02-20T02:08:39.173Z,151.97
2019-02-20T02:11:05.910Z,153.53
2019-02-20T02:13:32.659Z,153.00
2019-02-20T02:15:59.398Z,151.57
2019-02-20T02:18:27.335Z,149.90
2019-02-20T02:20:54.216Z,152.22
2019-02-20T02:23:21.021Z,151.10
2019-02-20T02:25:47.986Z,152.00
2019-02-20T02:28:16.111Z,152.12
2019-02-20T02:30:42.859Z,152.72
2019-02-20T02:33:09.610Z,152.10
2019-02-20T02:35:36.587Z,151.12
2019-02-20T02:38:03.329Z,151.32
2019-02-20T02:40:30.092Z,151.55
2019-02-20T02:42:56.842Z,152.20
2019-02-20T02:45:23.733Z,151.40
2019-02-20T02:47:50.560Z,152.62
2019-02-20T02:50:17.472Z,152.90
2019-02-20T02:52:44.318Z,152.27
2019-02-20T02:55:11.163Z,151.22
2019-02-20T02:57:38.122Z,151.15
2019-02-20T03:00:05.227Z,152.00
2019-02-20T03:02:33.886Z,150.10
2019-02-20T03:05:00.764Z,150.15
2019-02-20T03:07:28.090Z,151.68
2019-02-20T03:09:54.825Z,152.93
2019-02-20T03:12:21.575Z,151.05
2019-02-20T03:14:48.762Z,151.40
2019-02-20T03:17:15.734Z,152.60
2019-02-20T03:19:42.482Z,151.85
2019-02-20T03:22:09.223Z,151.18
2019-02-20T03:24:35.960Z,152.17
2019-02-20T03:27:02.751Z,150.78
2019-02-20T03:29:29.809Z,151.10
2019-02-20T03:31:56.649Z,150.45
2019-02-20T03:34:23.628Z,150.45
2019-02-20T03:36:50.377Z,150.87
2019-02-20T03:39:17.274Z,152.17
2019-02-20T03:41:44.043Z,151.78
2019-02-20T03:44:11.090Z,151.65
2019-02-20T03:46:37.837Z,151.60
2019-02-20T03:49:05.813Z,152.95
2019-02-20T03:51:32.537Z,150.72
2019-02-20T03:53:59.408Z,152.00
2019-02-20T03:56:26.266Z,149.70
2019-02-20T03:58:53.139Z,149.38
2019-02-20T04:01:19.963Z,148.95
2019-02-20T04:03:46.849Z,150.35
2019-02-20T04:06:13.595Z,149.72
2019-02-20T04:08:41.630Z,150.35
2019-02-20T04:11:08.636Z,148.75
2019-02-20T04:13:35.384Z,149.53
2019-02-20T04:16:02.136Z,157.57
2019-02-20T04:18:29.016Z,150.12
2019-02-20T04:20:55.938Z,152.27
2019-02-20T04:23:22.809Z,151.10
2019-02-20T04:25:49.662Z,151.45
2019-02-20T04:28:16.419Z,150.97
2019-02-20T04:30:43.377Z,151.78
2019-02-20T04:33:10.156Z,149.90
2019-02-20T04:35:37.100Z,151.55
2019-02-20T04:38:03.938Z,151.82
2019-02-20T04:40:30.823Z,152.45
2019-02-20T04:42:58.509Z,151.15
2019-02-20T04:45:25.426Z,150.90
2019-02-20T04:47:52.181Z,151.82
2019-02-20T04:50:19.011Z,151.65
2019-02-20T04:52:45.942Z,151.70
2019-02-20T04:55:12.745Z,151.70
2019-02-20T04:57:39.606Z,150.80
2019-02-20T05:00:10.057Z,150.60
2019-02-20T05:02:36.916Z,153.70
2019-02-20T05:05:03.675Z,153.72
2019-02-20T05:07:30.636Z,153.70
2019-02-20T05:09:57.514Z,152.57
2019-02-20T05:12:24.245Z,152.93
2019-02-20T05:14:51.019Z,153.57
2019-02-20T05:17:17.784Z,152.20
2019-02-20T05:19:44.879Z,153.93
2019-02-20T05:22:11.733Z,153.78
2019-02-20T05:24:38.565Z,156.35
2019-02-20T05:27:05.286Z,155.52
2019-02-20T05:29:32.237Z,156.85
2019-02-20T05:32:00.800Z,156.07
2019-02-20T05:34:27.616Z,155.50
2019-02-20T05:36:54.637Z,156.28
2019-02-20T05:39:21.609Z,156.50
2019-02-20T05:41:48.451Z,155.75
2019-02-20T05:44:15.258Z,156.12
2019-02-20T05:46:42.179Z,156.85
2019-02-20T05:49:08.931Z,156.05
2019-02-20T05:51:35.792Z,157.52
2019-02-20T05:54:02.590Z,158.87
2019-02-20T05:56:29.548Z,155.18
2019-02-20T05:59:14.715Z,157.20
2019-02-20T06:02:08.584Z,157.27
2019-02-20T06:04:36.498Z,158.25
2019-02-20T06:07:03.298Z,159.57
2019-02-20T06:09:30.356Z,157.57
2019-02-20T06:11:57.109Z,158.30
2019-02-20T06:14:23.995Z,155.82
2019-02-20T06:16:50.783Z,156.93
2019-02-20T06:19:17.519Z,158.50
2019-02-20T06:21:44.341Z,157.75
2019-02-20T06:24:11.085Z,158.15
2019-02-20T06:26:37.823Z,157.00
2019-02-20T06:29:04.824Z,156.80
2019-02-20T06:31:31.776Z,156.50
2019-02-20T06:33:58.525Z,156.35
2019-02-20T06:36:25.392Z,158.90
2019-02-20T06:38:52.254Z,158.97
2019-02-20T06:41:19.233Z,158.42
2019-02-20T06:43:48.117Z,159.43
2019-02-20T06:46:14.967Z,158.05
2019-02-20T06:48:41.965Z,158.68
2019-02-20T06:51:08.758Z,162.70
2019-02-20T06:53:35.699Z,161.92
2019-02-20T06:56:02.548Z,164.60
2019-02-20T06:58:29.325Z,161.52
2019-02-20T07:00:56.086Z,161.22
2019-02-20T07:03:23.255Z,160.22
2019-02-20T07:05:56.497Z,162.07
2019-02-20T07:09:04.761Z,158.87
2019-02-20T07:12:24.804Z,158.20
2019-02-20T07:15:39.627Z,159.05
2019-02-20T07:19:03.821Z,159.67
2019-02-20T07:22:03.328Z,158.03
2019-02-20T07:25:02.660Z,158.87
2019-02-20T07:28:02.165Z,159.27
2019-02-20T07:30:29.141Z,156.97
2019-02-20T07:32:55.991Z,157.75
2019-02-20T07:35:22.951Z,157.03
2019-02-20T07:37:49.942Z,157.72
2019-02-20T07:40:16.895Z,160.05
2019-02-20T07:42:43.871Z,160.37
2019-02-20T07:45:13.451Z,159.80
2019-02-20T07:47:40.402Z,162.88
2019-02-20T07:50:08.944Z,163.12
2019-02-20T07:52:36.227Z,162.90
2019-02-20T07:55:12.666Z,165.47
2019-02-20T07:57:31.860Z,164.10
2019-02-20T07:59:58.854Z,164.52
2019-02-20T08:02:25.703Z,164.80
2019-02-20T08:04:52.581Z,165.55
2019-02-20T08:07:19.474Z,163.22
2019-02-20T08:09:46.320Z,164.25
2019-02-20T08:12:13.069Z,165.70
2019-02-20T08:14:39.964Z,165.47
2019-02-20T08:17:06.826Z,165.95
2019-02-20T08:19:34.881Z,162.35
2019-02-20T08:22:01.697Z,163.00
2019-02-20T08:24:29.798Z,166.60
2019-02-20T08:26:56.780Z,167.70
2019-02-20T08:29:23.696Z,168.13
2019-02-20T08:31:50.549Z,171.00
2019-02-20T08:34:17.394Z,168.95
2019-02-20T08:36:44.379Z,172.40
2019-02-20T08:39:11.325Z,170.57
2019-02-20T08:41:38.354Z,170.97
2019-02-20T08:44:05.177Z,171.15
2019-02-20T08:46:31.916Z,170.43
2019-02-20T08:48:58.658Z,169.62
2019-02-20T08:51:25.461Z,171.68
2019-02-20T08:53:52.308Z,172.20
2019-02-20T08:56:19.093Z,169.00
2019-02-20T08:58:46.050Z,171.05
2019-02-20T09:01:12.821Z,170.47
2019-02-20T09:03:39.575Z,170.57
2019-02-20T09:06:06.354Z,169.17
2019-02-20T09:09:58.598Z,168.22
2019-02-20T09:12:54.393Z,170.92
2019-02-20T09:15:24.782Z,168.10
2019-02-20T09:17:51.630Z,170.07
2019-02-20T09:20:18.476Z,169.57
2019-02-20T09:22:45.339Z,169.50
2019-02-20T09:25:19.445Z,170.28
2019-02-20T09:27:40.936Z,168.68
2019-02-20T09:30:10.907Z,170.02
2019-02-20T09:32:37.783Z,169.80
2019-02-20T09:35:05.484Z,170.12
2019-02-20T09:37:32.423Z,168.75
2019-02-20T09:39:59.170Z,170.60
2019-02-20T09:42:26.599Z,170.43
2019-02-20T09:44:53.345Z,169.43
2019-02-20T09:47:20.098Z,171.98
2019-02-20T09:52:13.520Z,171.90
2019-02-20T09:54:40.394Z,172.32
2019-02-20T09:57:07.350Z,171.93
2019-02-20T09:59:34.335Z,173.82
2019-02-20T10:02:01.393Z,171.13
2019-02-20T10:04:29.024Z,170.17
2019-02-20T10:06:55.778Z,170.57
2019-02-20T10:09:22.644Z,168.35
2019-02-20T10:11:49.832Z,170.22
2019-02-20T10:14:16.819Z,168.97
2019-02-20T10:16:44.873Z,171.47
2019-02-20T10:19:11.833Z,171.25
2019-02-20T10:21:38.835Z,171.98
2019-02-20T10:24:05.590Z,171.55
2019-02-20T10:26:33.437Z,171.07
2019-02-20T10:29:01.631Z,171.35
2019-02-20T10:31:28.532Z,172.47
2019-02-20T10:33:55.492Z,171.43
2019-02-20T10:36:22.328Z,170.20
2019-02-20T10:38:49.143Z,172.68
2019-02-20T10:41:16.038Z,172.75
2019-02-20T10:43:42.793Z,171.77
2019-02-20T10:46:09.668Z,170.20
2019-02-20T10:48:36.545Z,170.10
2019-02-20T10:51:03.300Z,172.20
2019-02-20T10:53:31.472Z,170.77
2019-02-20T10:55:58.319Z,170.47
2019-02-20T10:58:25.364Z,172.85
2019-02-20T11:00:53.218Z,171.65
2019-02-20T11:03:20.074Z,172.00
2019-02-20T11:05:46.880Z,178.23
2019-02-20T11:08:13.725Z,172.28
2019-02-20T11:10:40.583Z,171.55
2019-02-20T11:13:07.557Z,174.77
2019-02-20T11:15:34.414Z,173.62
2019-02-20T11:18:01.188Z,174.72
2019-02-20T11:20:28.169Z,173.47
2019-02-20T11:22:55.026Z,170.97
2019-02-20T11:25:21.766Z,170.77
2019-02-20T11:27:48.743Z,172.37
2019-02-20T11:30:24.959Z,174.05
2019-02-20T11:32:56.623Z,169.47
2019-02-20T11:35:23.348Z,169.22
2019-02-20T11:37:50.111Z,168.43
2019-02-20T11:40:16.892Z,170.65
2019-02-20T11:42:43.851Z,170.30
2019-02-20T11:45:10.952Z,168.97
2019-02-20T11:47:39.816Z,171.30
2019-02-20T11:50:08.150Z,169.05
2019-02-20T11:52:38.310Z,168.90
2019-02-20T11:55:05.507Z,170.40
2019-02-20T11:57:32.567Z,165.85
2019-02-20T11:59:59.325Z,168.78
2019-02-20T12:02:27.349Z,169.07
2019-02-20T12:04:54.158Z,167.95
2019-02-20T12:07:21.089Z,169.43
2019-02-20T12:09:48.081Z,170.28
2019-02-20T12:12:17.922Z,169.10
2019-02-20T12:14:44.751Z,168.37
2019-02-20T12:17:11.509Z,165.28
2019-02-20T12:19:39.419Z,166.45
2019-02-20T12:22:06.306Z,168.28
2019-02-20T12:24:33.220Z,169.80
2019-02-20T12:26:59.968Z,167.57
2019-02-20T12:29:26.932Z,166.37
2019-02-20T12:34:33.739Z,166.18
2019-02-20T12:37:00.526Z,166.73
2019-02-20T12:39:27.815Z,165.25
2019-02-20T12:41:54.766Z,167.65
2019-02-20T12:44:24.849Z,166.35
2019-02-20T12:46:52.249Z,165.10
2019-02-20T12:49:19.232Z,167.75
2019-02-20T12:51:47.187Z,164.97
2019-02-20T12:54:14.049Z,164.32
2019-02-20T12:56:43.987Z,163.47
2019-02-20T12:59:09.886Z,165.65
2019-02-20T13:01:40.872Z,162.55
2019-02-20T13:04:07.812Z,164.77
2019-02-20T13:06:34.715Z,162.95
2019-02-20T13:09:01.532Z,164.00
2019-02-20T13:11:34.304Z,163.57
2019-02-20T13:14:01.591Z,162.47
2019-02-20T13:16:28.969Z,162.57
2019-02-20T13:18:55.850Z,162.97
2019-02-20T13:21:22.642Z,162.53
2019-02-20T13:23:49.895Z,164.25
2019-02-20T13:26:16.653Z,164.37
2019-02-20T13:28:43.417Z,164.22
2019-02-20T13:31:10.387Z,163.37
2019-02-20T13:33:37.366Z,162.85
2019-02-20T13:36:04.257Z,162.27
2019-02-20T13:38:31.271Z,163.05
2019-02-20T13:40:58.240Z,162.80
2019-02-20T13:43:25.595Z,162.30
2019-02-20T13:45:52.449Z,162.12
2019-02-20T13:48:19.206Z,161.52
2019-02-20T13:50:46.992Z,163.10
2019-02-20T13:53:14.338Z,164.40
2019-02-20T13:55:41.412Z,166.80
2019-02-20T13:58:08.478Z,165.88
2019-02-20T14:00:35.382Z,166.68
2019-02-20T14:03:02.886Z,165.85
2019-02-20T14:05:30.099Z,167.03
2019-02-20T14:08:00.681Z,165.85
2019-02-20T14:10:27.685Z,165.35
2019-02-20T14:12:54.456Z,166.10
2019-02-20T14:15:21.338Z,164.82
2019-02-20T14:17:48.225Z,165.88
2019-02-20T14:20:15.132Z,165.07
2019-02-20T14:22:42.078Z,165.15
2019-02-20T14:25:08.886Z,166.55
2019-02-20T14:27:35.647Z,163.65
2019-02-20T14:30:03.074Z,166.30
2019-02-20T14:32:31.799Z,167.30
2019-02-20T14:34:58.600Z,164.13
2019-02-20T14:37:25.342Z,164.77
2019-02-20T14:39:52.820Z,165.20
2019-02-20T14:42:19.762Z,162.75
2019-02-20T14:44:46.545Z,165.03
2019-02-20T14:47:13.338Z,163.10
2019-02-20T14:49:41.878Z,165.88
2019-02-20T14:52:18.630Z,163.15
2019-02-20T14:54:45.796Z,165.20
2019-02-20T14:57:19.360Z,163.60
2019-02-20T14:59:41.806Z,166.05
2019-02-20T15:02:09.508Z,162.12
2019-02-20T15:04:54.196Z,163.22
2019-02-20T15:07:27.018Z,162.12
2019-02-20T15:09:55.667Z,161.85
2019-02-20T15:12:22.980Z,162.43
2019-02-20T15:14:49.991Z,162.20
2019-02-20T15:17:16.879Z,162.92
2019-02-20T15:19:43.726Z,163.50
2019-02-20T15:22:10.565Z,161.92
2019-02-20T15:24:38.569Z,162.97
2019-02-20T15:27:06.353Z,162.68
2019-02-20T15:29:33.167Z,162.97
2019-02-20T15:32:00.047Z,162.32
2019-02-20T15:34:26.891Z,162.72
2019-02-20T15:36:53.654Z,162.55
2019-02-20T15:39:20.547Z,162.95
2019-02-20T15:41:47.283Z,162.20
2019-02-20T15:44:14.036Z,162.75
2019-02-20T15:46:41.040Z,162.40
2019-02-20T15:49:07.770Z,163.30
2019-02-20T15:51:34.620Z,162.62
2019-02-20T15:54:01.624Z,162.97
2019-02-20T15:56:30.684Z,162.35
2019-02-20T15:58:57.540Z,161.62
2019-02-20T16:01:26.134Z,161.95
2019-02-20T16:03:52.866Z,161.57
2019-02-20T16:06:19.914Z,161.32
2019-02-20T16:08:46.790Z,161.45
2019-02-20T16:11:13.523Z,161.88
2019-02-20T16:13:41.453Z,161.37
2019-02-20T16:16:08.462Z,161.77
2019-02-20T16:18:35.346Z,160.55
2019-02-20T16:21:02.252Z,161.07
2019-02-20T16:23:31.124Z,161.40
2019-02-20T16:26:02.274Z,160.72
2019-02-20T16:28:33.836Z,159.82
2019-02-20T16:30:58.082Z,159.72
2019-02-20T16:33:24.842Z,159.30
2019-02-20T16:35:53.381Z,159.32
2019-02-20T16:38:20.399Z,159.60
2019-02-20T16:40:49.664Z,160.43
2019-02-20T16:43:16.809Z,158.90
2019-02-20T16:45:43.701Z,159.95
2019-02-20T16:48:10.463Z,158.75
2019-02-20T16:50:37.290Z,156.70
2019-02-20T16:53:07.889Z,159.55
2019-02-20T16:55:34.663Z,158.15
2019-02-20T16:58:01.410Z,159.18
2019-02-20T17:00:28.686Z,157.78
2019-02-20T17:02:55.442Z,157.78
2019-02-20T17:05:22.317Z,157.45
2019-02-20T17:07:49.282Z,159.30
2019-02-20T17:10:16.377Z,158.15
2019-02-20T17:12:43.324Z,158.50
2019-02-20T17:15:10.605Z,157.90
2019-02-20T17:17:37.459Z,167.75
2019-02-20T17:20:05.834Z,183.18
2019-02-20T17:22:32.767Z,177.60
2019-02-20T17:24:59.512Z,168.00
2019-02-20T17:27:27.414Z,159.60
2019-02-20T17:29:54.197Z,161.22
2019-02-20T17:32:21.228Z,158.12
2019-02-20T17:34:47.970Z,159.43
2019-02-20T17:37:14.856Z,161.15
2019-02-20T17:39:43.296Z,174.02
2019-02-20T17:42:10.274Z,176.07
2019-02-20T17:44:37.030Z,175.45
2019-02-20T17:47:04.096Z,164.07
2019-02-20T17:49:31.140Z,159.30
2019-02-20T17:51:57.892Z,175.47
2019-02-20T17:54:24.772Z,172.57
2019-02-20T17:56:51.934Z,161.57
2019-02-20T17:59:18.854Z,158.15
2019-02-20T18:01:46.040Z,155.25
2019-02-20T18:04:12.786Z,156.28
2019-02-20T18:06:39.716Z,156.32
2019-02-20T18:09:06.711Z,154.27
2019-02-20T18:11:36.873Z,154.68
2019-02-20T18:14:03.724Z,155.10
2019-02-20T18:16:30.892Z,157.65
2019-02-20T18:18:59.757Z,154.32
2019-02-20T18:21:26.530Z,157.20
2019-02-20T18:23:53.391Z,155.87
2019-02-20T18:26:20.309Z,155.85
2019-02-20T18:28:47.191Z,158.22
2019-02-20T18:31:14.035Z,159.03
2019-02-20T18:33:41.014Z,157.90
2019-02-20T18:36:07.795Z,157.45
2019-02-20T18:38:34.510Z,157.47
2019-02-20T18:41:01.252Z,156.15
2019-02-20T18:43:28.008Z,156.35
2019-02-20T18:45:55.064Z,156.43
2019-02-20T18:48:21.863Z,156.35
2019-02-20T18:50:48.885Z,155.93
2019-02-20T18:53:15.721Z,155.75
2019-02-20T18:55:43.781Z,156.47
2019-02-20T18:58:10.905Z,156.52
2019-02-20T19:00:39.440Z,156.28
2019-02-20T19:03:06.415Z,156.05
2019-02-20T19:05:33.840Z,156.93
2019-02-20T19:08:22.537Z,155.70
2019-02-20T19:10:55.582Z,157.30
2019-02-20T19:13:57.357Z,156.25
2019-02-20T19:16:52.229Z,161.30
2019-02-20T19:19:36.174Z,159.32
2019-02-20T19:22:48.463Z,169.62
2019-02-20T19:25:57.049Z,164.62
2019-02-20T19:28:55.152Z,166.70
2019-02-20T19:32:18.148Z,158.07
2019-02-20T19:34:53.296Z,156.60
2019-02-20T19:37:33.344Z,156.10
2019-02-20T19:40:57.196Z,155.55
2019-02-20T19:44:03.227Z,162.47
2019-02-20T19:47:22.484Z,158.90
2019-02-20T19:50:20.625Z,157.50
2019-02-20T19:53:19.958Z,159.70
2019-02-20T19:56:44.232Z,158.75
2019-02-20T20:00:08.147Z,158.45
2019-02-20T20:03:13.351Z,158.25
2019-02-20T20:06:19.185Z,156.90
2019-02-20T20:09:29.269Z,155.35
2019-02-20T20:12:35.272Z,154.95
2019-02-20T20:15:25.511Z,156.25
2019-02-20T20:18:22.307Z,153.90
2019-02-20T20:21:27.642Z,155.63
2019-02-20T20:24:44.779Z,154.40
2019-02-20T20:27:26.878Z,154.10
2019-02-20T20:30:34.168Z,154.32
2019-02-20T20:33:35.589Z,154.53
2019-02-20T20:36:44.717Z,154.35
2019-02-20T20:39:50.996Z,153.65
2019-02-20T20:42:55.826Z,155.32
2019-02-20T20:45:42.303Z,155.90
2019-02-20T20:48:32.549Z,152.70
2019-02-20T20:51:44.447Z,155.45
2019-02-20T20:54:49.514Z,157.50
2019-02-20T20:57:34.708Z,160.03
2019-02-20T21:00:40.490Z,158.68
2019-02-20T21:03:10.579Z,164.00
2019-02-20T21:06:01.083Z,157.30
2019-02-20T21:09:21.886Z,157.47
2019-02-20T21:12:44.930Z,155.05
2019-02-20T21:15:44.902Z,152.85
2019-02-20T21:18:35.156Z,153.42
2019-02-20T21:21:19.011Z,151.75
2019-02-20T21:24:23.686Z,151.53
2019-02-20T21:27:29.211Z,151.53
2019-02-20T21:30:36.978Z,150.62
2019-02-20T21:33:48.875Z,151.87
2019-02-20T21:37:00.939Z,149.55
2019-02-20T21:39:47.713Z,150.87
2019-02-20T21:42:52.744Z,149.32
2019-02-20T21:45:59.405Z,149.72
2019-02-20T21:48:55.393Z,149.87
2019-02-20T21:52:08.086Z,150.68
2019-02-20T21:55:09.055Z,149.85
2019-02-20T21:58:15.528Z,151.15
2019-02-20T22:01:21.991Z,151.42
2019-02-20T22:04:17.442Z,151.18
2019-02-20T22:07:16.811Z,151.02
2019-02-20T22:10:01.100Z,151.05
2019-02-20T22:12:54.850Z,150.60
2019-02-20T22:16:02.706Z,149.93
2019-02-20T22:19:01.708Z,150.07
2019-02-20T22:22:07.994Z,150.03
2019-02-20T22:25:22.871Z,151.07
2019-02-20T22:28:26.484Z,148.80
2019-02-20T22:31:41.404Z,150.78
2019-02-20T22:34:46.156Z,148.97
2019-02-20T22:37:51.924Z,148.62
2019-02-20T22:40:49.006Z,149.35
2019-02-20T22:43:41.771Z,150.38
2019-02-20T22:46:16.864Z,150.32
2019-02-20T22:49:31.607Z,151.05
2019-02-20T22:52:53.699Z,148.70
2019-02-20T22:55:36.367Z,150.55
2019-02-20T22:58:19.782Z,151.35
2019-02-20T23:01:34.210Z,151.10
2019-02-20T23:04:24.199Z,152.10
2019-02-20T23:07:05.771Z,150.65
2019-02-20T23:09:42.592Z,166.50
2019-02-20T23:12:30.970Z,160.90
2019-02-20T23:14:57.941Z,155.52
2019-02-20T23:17:27.126Z,153.30
2019-02-20T23:19:54.258Z,155.50
2019-02-20T23:22:21.010Z,154.78
2019-02-20T23:24:49.133Z,154.85
2019-02-20T23:27:16.378Z,154.30
2019-02-20T23:29:43.921Z,154.38
2019-02-20T23:32:10.772Z,154.78
2019-02-20T23:34:37.666Z,156.50
2019-02-20T23:37:04.702Z,155.63
2019-02-20T23:39:31.445Z,154.63
2019-02-20T23:41:58.411Z,154.35
2019-02-20T23:44:25.142Z,153.00
2019-02-20T23:46:51.992Z,157.70
2019-02-20T23:49:18.875Z,155.63
2019-02-20T23:51:45.722Z,152.17
2019-02-20T23:54:12.486Z,152.93
2019-02-20T23:56:39.401Z,154.40
2019-02-20T23:59:06.168Z,154.07
